Time;durP1;ratioP1;P1;durP2;ratioP2;P2;SDS_P1;SDS_P2;PMS_P1;PMS_P2;Temp;Humidity;BMP_temperature;BMP_pressure;BME280_temperature;BME280_humidity;BME280_pressure;Samples;Min_cycle;Max_cycle;Signal;HPM_P1;HPM_P2
2023/04/29 00:00:39;;;;;;;;;;;15.00;99.90;;;;;;5002073;28;19934;-74
2023/04/29 00:03:08;;;;;;;;;;;14.90;99.90;;;;;;5000869;28;20609;-75
2023/04/29 00:05:34;;;;;;;;;;;14.90;99.90;;;;;;5001870;28;19968;-75
2023/04/29 00:08:01;;;;;;;;;;;14.90;99.90;;;;;;5000191;28;19933;-74
2023/04/29 00:10:28;;;;;;;;;;;14.90;99.90;;;;;;5004174;28;20530;-75
2023/04/29 00:12:55;;;;;;;;;;;14.90;99.90;;;;;;5002451;28;21200;-75
2023/04/29 00:15:21;;;;;;;;;;;14.90;99.90;;;;;;5004387;28;19988;-75
2023/04/29 00:17:48;;;;;;;;;;;14.90;99.90;;;;;;5001492;28;19996;-75
2023/04/29 00:20:16;;;;;;;;;;;14.80;99.90;;;;;;5002380;28;19933;-75
2023/04/29 00:22:43;;;;;;;;;;;14.80;99.90;;;;;;4999685;28;19940;-75
2023/04/29 00:25:11;;;;;;;;;;;14.80;99.90;;;;;;5003163;28;19976;-75
2023/04/29 00:27:38;;;;;;;;;;;14.80;99.90;;;;;;4999938;28;19930;-75
2023/04/29 00:30:05;;;;;;;;;;;14.80;99.90;;;;;;5004519;28;20447;-75
2023/04/29 00:32:32;;;;;;;;;;;14.80;99.90;;;;;;5000107;28;19940;-75
2023/04/29 00:34:58;;;;;;;;;;;14.80;99.90;;;;;;4995072;28;20610;-75
2023/04/29 00:37:26;;;;;;;;;;;14.80;99.90;;;;;;5000767;28;19933;-75
2023/04/29 00:39:52;;;;;;;;;;;14.70;99.90;;;;;;5002939;28;19929;-75
2023/04/29 00:42:20;;;;;;;;;;;14.70;99.90;;;;;;4999256;28;19952;-75
2023/04/29 00:44:46;;;;;;;;;;;14.70;99.90;;;;;;4999774;28;20005;-75
2023/04/29 00:47:14;;;;;;;;;;;14.70;99.90;;;;;;5002675;28;22360;-75
2023/04/29 00:49:41;;;;;;;;;;;14.70;99.90;;;;;;4999145;28;19960;-76
2023/04/29 00:52:08;;;;;;;;;;;14.70;99.90;;;;;;4995269;28;19929;-75
2023/04/29 00:54:36;;;;;;;;;;;14.60;99.90;;;;;;5001356;28;19930;-75
2023/04/29 00:57:05;;;;;;;;;;;14.60;99.90;;;;;;5000649;28;19936;-75
2023/04/29 00:59:33;;;;;;;;;;;14.60;99.90;;;;;;4999145;28;19940;-75
2023/04/29 01:02:00;;;;;;;;;;;14.60;99.90;;;;;;5001247;28;19934;-75
2023/04/29 01:04:27;;;;;;;;;;;14.60;99.90;;;;;;4999954;28;20639;-75
2023/04/29 01:06:58;;;;;;;;;;;14.60;99.90;;;;;;5003536;28;19926;-77
2023/04/29 01:09:29;;;;;;;;;;;14.60;99.90;;;;;;5002556;28;20341;-75
2023/04/29 01:12:05;;;;;;;;;;;14.60;99.90;;;;;;4998727;28;19926;-74
2023/04/29 01:14:33;;;;;;;;;;;14.50;99.90;;;;;;4998290;28;19941;-74
2023/04/29 01:17:00;;;;;;;;;;;14.50;99.90;;;;;;5001868;28;19933;-74
2023/04/29 01:19:39;;;;;;;;;;;14.50;99.90;;;;;;4997708;28;19933;-75
2023/04/29 01:22:05;;;;;;;;;;;14.50;99.90;;;;;;5002551;28;19937;-75
2023/04/29 01:24:33;;;;;;;;;;;14.50;99.90;;;;;;4999307;28;19933;-74
2023/04/29 01:27:05;;;;;;;;;;;14.50;99.90;;;;;;4994496;28;19933;-75
2023/04/29 01:29:35;;;;;;;;;;;14.50;99.90;;;;;;5000357;28;19975;-75
2023/04/29 01:32:07;;;;;;;;;;;14.50;99.90;;;;;;5004623;28;19937;-75
2023/04/29 01:34:38;;;;;;;;;;;14.40;99.90;;;;;;4995141;28;19930;-75
2023/04/29 01:37:14;;;;;;;;;;;14.40;99.90;;;;;;5000865;28;20348;-75
2023/04/29 01:39:45;;;;;;;;;;;14.40;99.90;;;;;;5000307;28;19930;-73
2023/04/29 01:42:15;;;;;;;;;;;14.40;99.90;;;;;;4999260;28;19940;-75
2023/04/29 01:44:42;;;;;;;;;;;14.40;99.90;;;;;;5000363;28;19975;-74
2023/04/29 01:47:10;;;;;;;;;;;14.40;99.90;;;;;;5001545;28;19933;-75
2023/04/29 01:49:37;;;;;;;;;;;14.40;99.90;;;;;;4997999;28;19934;-75
2023/04/29 01:52:04;;;;;;;;;;;14.30;99.90;;;;;;4999694;28;19936;-75
2023/04/29 01:54:30;;;;;;;;;;;14.30;99.90;;;;;;5000949;28;19933;-75
2023/04/29 01:56:59;;;;;;;;;;;14.30;99.90;;;;;;5004825;28;19988;-75
2023/04/29 01:59:25;;;;;;;;;;;14.30;99.90;;;;;;5004281;28;20083;-75
2023/04/29 02:01:52;;;;;;;;;;;14.30;99.90;;;;;;4999592;28;19933;-75
2023/04/29 02:04:18;;;;;;;;;;;14.30;99.90;;;;;;5001332;28;19937;-75
2023/04/29 02:06:45;;;;;;;;;;;14.30;99.90;;;;;;5000393;28;19933;-75
2023/04/29 02:09:11;;;;;;;;;;;14.20;99.90;;;;;;4999948;28;19929;-75
2023/04/29 02:11:38;;;;;;;;;;;14.30;99.90;;;;;;5001798;28;19995;-75
2023/04/29 02:14:06;;;;;;;;;;;14.20;99.90;;;;;;4998864;28;19933;-75
2023/04/29 02:16:32;;;;;;;;;;;14.20;99.90;;;;;;5000875;28;19937;-75
2023/04/29 02:18:59;;;;;;;;;;;14.20;99.90;;;;;;4999352;28;19933;-76
2023/04/29 02:21:26;;;;;;;;;;;14.20;99.90;;;;;;5009427;28;19937;-74
2023/04/29 02:23:53;;;;;;;;;;;14.20;99.90;;;;;;4998269;28;19934;-75
2023/04/29 02:26:20;;;;;;;;;;;14.20;99.90;;;;;;4998996;28;19961;-75
2023/04/29 02:28:47;;;;;;;;;;;14.20;99.90;;;;;;4999602;28;20619;-75
2023/04/29 02:31:15;;;;;;;;;;;14.20;99.90;;;;;;4998809;28;19977;-75
2023/04/29 02:33:41;;;;;;;;;;;14.20;99.90;;;;;;5002015;28;19929;-74
2023/04/29 02:36:08;;;;;;;;;;;14.10;99.90;;;;;;5004914;28;20342;-75
2023/04/29 02:38:34;;;;;;;;;;;14.20;99.90;;;;;;5002411;28;19930;-75
2023/04/29 02:41:01;;;;;;;;;;;14.10;99.90;;;;;;4993867;28;19937;-75
2023/04/29 02:43:29;;;;;;;;;;;14.10;99.90;;;;;;5001516;28;19983;-75
2023/04/29 02:45:56;;;;;;;;;;;14.10;99.90;;;;;;5002058;28;19972;-74
2023/04/29 02:48:24;;;;;;;;;;;14.10;99.90;;;;;;4998127;28;20668;-75
2023/04/29 02:50:51;;;;;;;;;;;14.10;99.90;;;;;;4997405;28;19929;-75
2023/04/29 02:53:19;;;;;;;;;;;14.10;99.90;;;;;;4990859;28;20036;-75
2023/04/29 02:55:46;;;;;;;;;;;14.10;99.90;;;;;;5001138;28;19929;-75
2023/04/29 02:58:13;;;;;;;;;;;14.00;99.90;;;;;;5002531;28;20032;-75
2023/04/29 03:00:40;;;;;;;;;;;14.00;99.90;;;;;;5002720;28;19929;-75
2023/04/29 03:03:07;;;;;;;;;;;14.00;99.90;;;;;;4995423;28;20548;-75
2023/04/29 03:05:35;;;;;;;;;;;14.00;99.90;;;;;;5000422;28;19929;-75
2023/04/29 03:08:03;;;;;;;;;;;14.00;99.90;;;;;;4999943;28;19937;-75
2023/04/29 03:10:30;;;;;;;;;;;14.00;99.90;;;;;;4997139;28;20646;-75
2023/04/29 03:12:56;;;;;;;;;;;14.00;99.90;;;;;;4998304;28;20001;-75
2023/04/29 03:15:23;;;;;;;;;;;14.00;99.90;;;;;;5000379;28;20003;-75
2023/04/29 03:17:49;;;;;;;;;;;13.90;99.90;;;;;;5002227;28;20390;-75
2023/04/29 03:20:16;;;;;;;;;;;13.90;99.90;;;;;;4999393;28;20355;-75
2023/04/29 03:22:44;;;;;;;;;;;13.90;99.90;;;;;;4998970;28;19950;-74
2023/04/29 03:25:10;;;;;;;;;;;13.90;99.90;;;;;;5005162;28;19933;-75
2023/04/29 03:27:37;;;;;;;;;;;13.90;99.90;;;;;;5000417;28;19933;-75
2023/04/29 03:30:04;;;;;;;;;;;13.90;99.90;;;;;;4998185;28;19952;-75
2023/04/29 03:32:30;;;;;;;;;;;13.90;99.90;;;;;;5006549;28;19930;-76
2023/04/29 03:34:57;;;;;;;;;;;13.90;99.90;;;;;;4995588;28;19929;-75
2023/04/29 03:37:23;;;;;;;;;;;13.90;99.90;;;;;;5000985;28;19940;-75
2023/04/29 03:39:51;;;;;;;;;;;13.90;99.90;;;;;;4999507;28;19945;-76
2023/04/29 03:42:18;;;;;;;;;;;13.80;99.90;;;;;;5001258;28;20013;-75
2023/04/29 03:44:44;;;;;;;;;;;13.90;99.90;;;;;;5000675;28;19937;-75
2023/04/29 03:47:12;;;;;;;;;;;13.80;99.90;;;;;;5001799;28;19929;-74
2023/04/29 03:49:39;;;;;;;;;;;13.80;99.90;;;;;;4995959;28;19968;-75
2023/04/29 03:52:05;;;;;;;;;;;13.80;99.90;;;;;;4998957;28;20729;-76
2023/04/29 03:54:32;;;;;;;;;;;13.80;99.90;;;;;;4994987;28;20400;-75
2023/04/29 03:57:01;;;;;;;;;;;13.80;99.90;;;;;;5001302;28;19960;-75
2023/04/29 03:59:27;;;;;;;;;;;13.80;99.90;;;;;;5000480;28;19929;-75
2023/04/29 04:01:54;;;;;;;;;;;13.80;99.90;;;;;;4994292;28;19933;-75
2023/04/29 04:04:20;;;;;;;;;;;13.80;99.90;;;;;;4990530;28;19930;-76
2023/04/29 04:06:50;;;;;;;;;;;13.80;99.90;;;;;;5004796;28;20450;-75
2023/04/29 04:09:17;;;;;;;;;;;13.80;99.90;;;;;;5003606;28;20505;-75
2023/04/29 04:11:43;;;;;;;;;;;13.70;99.90;;;;;;4998600;28;20931;-73
2023/04/29 04:14:11;;;;;;;;;;;13.80;99.90;;;;;;4996608;28;19930;-75
2023/04/29 04:16:38;;;;;;;;;;;13.80;99.90;;;;;;4997533;28;19969;-75
2023/04/29 04:19:04;;;;;;;;;;;13.70;99.90;;;;;;4992225;28;20399;-75
2023/04/29 04:21:31;;;;;;;;;;;13.70;99.90;;;;;;4997710;28;19949;-75
2023/04/29 04:23:58;;;;;;;;;;;13.70;99.90;;;;;;5000988;28;19929;-75
2023/04/29 04:26:24;;;;;;;;;;;13.70;99.80;;;;;;4993480;28;20007;-74
2023/04/29 04:28:51;;;;;;;;;;;13.70;99.80;;;;;;5000570;28;20717;-75
2023/04/29 04:31:19;;;;;;;;;;;13.70;99.80;;;;;;4999434;28;20299;-75
2023/04/29 04:33:45;;;;;;;;;;;13.70;99.80;;;;;;4996162;28;19929;-75
2023/04/29 04:36:12;;;;;;;;;;;13.60;99.70;;;;;;4999556;28;19929;-74
2023/04/29 04:38:38;;;;;;;;;;;13.60;99.70;;;;;;4996515;28;19933;-75
2023/04/29 04:41:06;;;;;;;;;;;13.60;99.70;;;;;;4988392;28;20273;-75
2023/04/29 04:43:32;;;;;;;;;;;13.70;99.70;;;;;;4997448;28;20009;-74
2023/04/29 04:45:59;;;;;;;;;;;13.60;99.70;;;;;;4995329;28;20026;-75
2023/04/29 04:48:27;;;;;;;;;;;13.60;99.60;;;;;;4994314;28;19945;-75
2023/04/29 04:50:53;;;;;;;;;;;13.60;99.60;;;;;;5002248;28;19996;-75
2023/04/29 04:53:21;;;;;;;;;;;13.60;99.60;;;;;;5001422;28;21728;-75
2023/04/29 04:55:48;;;;;;;;;;;13.60;99.60;;;;;;5000086;28;20020;-75
2023/04/29 04:58:15;;;;;;;;;;;13.60;99.60;;;;;;5002443;28;20683;-75
2023/04/29 05:00:43;;;;;;;;;;;13.60;99.50;;;;;;5000405;28;19930;-75
2023/04/29 05:03:10;;;;;;;;;;;13.60;99.60;;;;;;4994145;28;19929;-75
2023/04/29 05:05:38;;;;;;;;;;;13.50;99.50;;;;;;4999422;28;20597;-75
2023/04/29 05:08:04;;;;;;;;;;;13.50;99.50;;;;;;5002666;28;20395;-75
2023/04/29 05:10:32;;;;;;;;;;;13.50;99.50;;;;;;5003003;28;19937;-75
2023/04/29 05:12:59;;;;;;;;;;;13.50;99.50;;;;;;4999855;28;19929;-75
2023/04/29 05:15:26;;;;;;;;;;;13.50;99.50;;;;;;4999782;28;20004;-73
2023/04/29 05:17:52;;;;;;;;;;;13.50;99.40;;;;;;5006687;28;19933;-71
2023/04/29 05:20:20;;;;;;;;;;;13.50;99.40;;;;;;4995891;28;19952;-75
2023/04/29 05:22:48;;;;;;;;;;;13.50;99.40;;;;;;5000808;28;20879;-75
2023/04/29 05:25:14;;;;;;;;;;;13.50;99.70;;;;;;5002333;28;19933;-75
2023/04/29 05:27:41;;;;;;;;;;;13.50;99.40;;;;;;4997248;28;19929;-75
2023/04/29 05:30:08;;;;;;;;;;;13.50;99.40;;;;;;5000371;28;20848;-75
2023/04/29 05:32:34;;;;;;;;;;;13.40;99.30;;;;;;5000929;28;19940;-75
2023/04/29 05:35:01;;;;;;;;;;;13.50;99.70;;;;;;5002708;28;19929;-75
2023/04/29 05:37:30;;;;;;;;;;;13.50;99.30;;;;;;4984409;28;20057;-77
2023/04/29 05:39:57;;;;;;;;;;;13.50;99.30;;;;;;4986043;28;20327;-74
2023/04/29 05:42:25;;;;;;;;;;;13.50;99.20;;;;;;4990982;28;19938;-74
2023/04/29 05:44:51;;;;;;;;;;;13.50;99.20;;;;;;4998431;28;19929;-74
2023/04/29 05:47:18;;;;;;;;;;;13.50;99.20;;;;;;4994616;28;19929;-71
2023/04/29 05:49:44;;;;;;;;;;;13.50;99.20;;;;;;4999747;28;20362;-73
2023/04/29 05:52:11;;;;;;;;;;;13.50;98.40;;;;;;5002280;28;19929;-73
2023/04/29 05:54:37;;;;;;;;;;;13.50;98.40;;;;;;5000957;28;20003;-73
2023/04/29 05:57:05;;;;;;;;;;;13.40;98.40;;;;;;4995814;28;19929;-73
2023/04/29 05:59:32;;;;;;;;;;;13.40;98.40;;;;;;5002250;28;19937;-74
2023/04/29 06:01:59;;;;;;;;;;;13.40;98.40;;;;;;4989142;28;19956;-74
2023/04/29 06:04:25;;;;;;;;;;;13.50;98.80;;;;;;4998046;28;19937;-74
2023/04/29 06:06:52;;;;;;;;;;;13.40;98.50;;;;;;5001953;28;19969;-73
2023/04/29 06:09:19;;;;;;;;;;;13.40;98.50;;;;;;5002637;28;19925;-74
2023/04/29 06:11:45;;;;;;;;;;;13.40;98.40;;;;;;5002783;28;19926;-73
2023/04/29 06:14:13;;;;;;;;;;;13.40;98.40;;;;;;4997542;28;19949;-74
2023/04/29 06:16:40;;;;;;;;;;;13.40;98.50;;;;;;4997915;28;19930;-74
2023/04/29 06:19:06;;;;;;;;;;;13.40;98.40;;;;;;4997924;28;19933;-73
2023/04/29 06:21:33;;;;;;;;;;;13.40;98.50;;;;;;5001539;28;19976;-74
2023/04/29 06:23:59;;;;;;;;;;;13.40;98.50;;;;;;5003163;28;19929;-74
2023/04/29 06:26:26;;;;;;;;;;;13.40;98.60;;;;;;4997706;28;20007;-73
2023/04/29 06:28:53;;;;;;;;;;;13.50;98.60;;;;;;4996898;28;20532;-73
2023/04/29 06:31:21;;;;;;;;;;;13.50;98.70;;;;;;5000571;28;19935;-73
2023/04/29 06:33:48;;;;;;;;;;;13.60;98.70;;;;;;4993838;28;20294;-73
2023/04/29 06:36:14;;;;;;;;;;;13.70;98.70;;;;;;4998945;28;20040;-73
2023/04/29 06:38:41;;;;;;;;;;;13.80;98.70;;;;;;4999275;28;19932;-73
2023/04/29 06:41:07;;;;;;;;;;;13.90;98.70;;;;;;4994665;28;19944;-74
2023/04/29 06:43:34;;;;;;;;;;;13.90;98.50;;;;;;4997010;28;19925;-74
2023/04/29 06:46:00;;;;;;;;;;;14.00;98.30;;;;;;5001436;28;19929;-74
2023/04/29 06:48:28;;;;;;;;;;;14.10;98.20;;;;;;4998706;28;19930;-74
2023/04/29 06:50:56;;;;;;;;;;;14.10;98.00;;;;;;5004313;28;19937;-74
2023/04/29 06:53:22;;;;;;;;;;;14.10;97.90;;;;;;5000331;28;19932;-74
2023/04/29 06:55:49;;;;;;;;;;;14.20;97.80;;;;;;4998231;28;19925;-74
2023/04/29 06:58:18;;;;;;;;;;;14.20;97.70;;;;;;5002406;28;19988;-74
2023/04/29 07:00:45;;;;;;;;;;;14.30;97.70;;;;;;4999978;28;19930;-74
2023/04/29 07:03:12;;;;;;;;;;;14.30;97.50;;;;;;4999524;28;19983;-73
2023/04/29 07:05:40;;;;;;;;;;;14.30;97.30;;;;;;4998772;28;19930;-73
2023/04/29 07:08:07;;;;;;;;;;;14.40;97.30;;;;;;4999614;28;19937;-73
2023/04/29 07:10:34;;;;;;;;;;;14.40;97.20;;;;;;5001799;28;19968;-74
2023/04/29 07:13:00;;;;;;;;;;;14.40;97.00;;;;;;4996793;28;19937;-74
2023/04/29 07:15:27;;;;;;;;;;;14.40;96.90;;;;;;5000128;28;19940;-74
2023/04/29 07:17:54;;;;;;;;;;;14.40;96.80;;;;;;4992998;28;19996;-73
2023/04/29 07:20:21;;;;;;;;;;;14.50;96.80;;;;;;4998089;28;20299;-73
2023/04/29 07:22:48;;;;;;;;;;;14.50;96.80;;;;;;4995256;28;19937;-73
2023/04/29 07:25:15;;;;;;;;;;;14.50;96.70;;;;;;4994550;28;19933;-74
2023/04/29 07:27:41;;;;;;;;;;;14.50;96.70;;;;;;4996122;28;19934;-74
2023/04/29 07:30:09;;;;;;;;;;;14.50;96.40;;;;;;4996184;28;19937;-74
2023/04/29 07:32:36;;;;;;;;;;;14.50;96.40;;;;;;4998996;28;20059;-74
2023/04/29 07:35:02;;;;;;;;;;;14.50;96.40;;;;;;4996412;28;19929;-74
2023/04/29 07:37:29;;;;;;;;;;;14.60;96.40;;;;;;4999281;28;19930;-73
2023/04/29 07:39:57;;;;;;;;;;;14.60;96.30;;;;;;4994558;28;19933;-73
2023/04/29 07:42:23;;;;;;;;;;;14.60;96.20;;;;;;4998367;28;19926;-73
2023/04/29 07:44:50;;;;;;;;;;;14.60;96.20;;;;;;4998219;28;19929;-73
2023/04/29 07:47:16;;;;;;;;;;;14.60;96.20;;;;;;4994674;28;20019;-73
2023/04/29 07:49:43;;;;;;;;;;;14.60;96.10;;;;;;4988044;28;19941;-76
2023/04/29 07:52:09;;;;;;;;;;;14.50;95.90;;;;;;4997959;28;19979;-76
2023/04/29 07:54:36;;;;;;;;;;;14.60;95.90;;;;;;4995493;28;19936;-79
2023/04/29 07:57:04;;;;;;;;;;;14.60;96.00;;;;;;4992790;28;20733;-79
2023/04/29 07:59:31;;;;;;;;;;;14.60;95.90;;;;;;4989537;28;19931;-77
2023/04/29 08:01:57;;;;;;;;;;;14.60;95.90;;;;;;4998142;28;20299;-77
2023/04/29 08:04:24;;;;;;;;;;;14.60;95.80;;;;;;4990723;28;20543;-77
2023/04/29 08:06:50;;;;;;;;;;;14.60;95.80;;;;;;4991184;28;19930;-74
2023/04/29 08:09:17;;;;;;;;;;;14.60;95.80;;;;;;4996957;28;19987;-73
2023/04/29 08:11:44;;;;;;;;;;;14.70;95.80;;;;;;4990880;28;19930;-76
2023/04/29 08:14:12;;;;;;;;;;;14.70;95.70;;;;;;4989529;28;19929;-76
2023/04/29 08:16:39;;;;;;;;;;;14.70;95.60;;;;;;4985558;28;19933;-78
2023/04/29 08:19:05;;;;;;;;;;;14.70;95.60;;;;;;4994445;28;19937;-78
2023/04/29 08:21:33;;;;;;;;;;;14.70;95.60;;;;;;4995753;28;19934;-75
2023/04/29 08:23:59;;;;;;;;;;;14.80;95.60;;;;;;4991943;28;19929;-80
2023/04/29 08:26:26;;;;;;;;;;;14.80;95.50;;;;;;4999436;28;19929;-78
2023/04/29 08:28:52;;;;;;;;;;;14.80;95.50;;;;;;5006958;28;20339;-78
2023/04/29 08:31:21;;;;;;;;;;;14.80;95.70;;;;;;5002895;28;20019;-77
2023/04/29 08:33:47;;;;;;;;;;;14.80;95.30;;;;;;4997827;28;20123;-75
2023/04/29 08:36:14;;;;;;;;;;;14.80;95.20;;;;;;4998437;28;20724;-75
2023/04/29 08:38:41;;;;;;;;;;;14.80;95.10;;;;;;4993962;28;20039;-76
2023/04/29 08:41:08;;;;;;;;;;;14.80;95.00;;;;;;4996134;28;19952;-76
2023/04/29 08:43:36;;;;;;;;;;;14.90;95.00;;;;;;4993413;28;20007;-78
2023/04/29 08:46:03;;;;;;;;;;;14.90;94.90;;;;;;4994474;28;19952;-77
2023/04/29 08:48:31;;;;;;;;;;;14.90;94.80;;;;;;4992091;28;19930;-76
2023/04/29 08:50:58;;;;;;;;;;;14.90;94.80;;;;;;4989092;28;19964;-77
2023/04/29 08:53:25;;;;;;;;;;;14.90;94.70;;;;;;4994381;28;19960;-75
2023/04/29 08:55:52;;;;;;;;;;;14.90;94.70;;;;;;4999027;28;19969;-75
2023/04/29 08:58:18;;;;;;;;;;;15.00;94.70;;;;;;4991227;28;19990;-75
2023/04/29 09:00:45;;;;;;;;;;;15.00;94.70;;;;;;4998902;28;19934;-74
2023/04/29 09:03:14;;;;;;;;;;;15.00;94.60;;;;;;4990564;28;19934;-75
2023/04/29 09:05:43;;;;;;;;;;;15.00;94.60;;;;;;5001194;28;19929;-75
2023/04/29 09:08:11;;;;;;;;;;;15.00;94.60;;;;;;4999050;28;19934;-75
2023/04/29 09:10:38;;;;;;;;;;;15.00;94.50;;;;;;5002444;28;19984;-74
2023/04/29 09:13:05;;;;;;;;;;;15.00;94.50;;;;;;5004783;28;19979;-75
2023/04/29 09:15:35;;;;;;;;;;;15.00;94.40;;;;;;5000044;28;19929;-75
2023/04/29 09:18:02;;;;;;;;;;;15.00;94.40;;;;;;4993563;28;19983;-74
2023/04/29 09:20:29;;;;;;;;;;;15.10;94.40;;;;;;4995003;28;19992;-75
2023/04/29 09:22:58;;;;;;;;;;;15.00;94.30;;;;;;5002709;28;19981;-74
2023/04/29 09:25:26;;;;;;;;;;;15.10;94.40;;;;;;4980742;28;19932;-77
2023/04/29 09:27:52;;;;;;;;;;;15.10;94.30;;;;;;4990681;28;20021;-77
2023/04/29 09:30:19;;;;;;;;;;;15.10;94.10;;;;;;4990308;28;20701;-73
2023/04/29 09:32:47;;;;;;;;;;;15.10;94.10;;;;;;5000234;28;19968;-74
2023/04/29 09:35:23;;;;;;;;;;;15.10;94.00;;;;;;4991231;28;19929;-75
2023/04/29 09:37:50;;;;;;;;;;;15.10;93.90;;;;;;4984674;28;19930;-73
2023/04/29 09:40:30;;;;;;;;;;;15.10;93.90;;;;;;4995269;28;19933;-74
2023/04/29 09:42:57;;;;;;;;;;;15.10;93.90;;;;;;4999405;28;19968;-74
2023/04/29 09:45:33;;;;;;;;;;;15.10;93.80;;;;;;4998906;28;20561;-74
2023/04/29 09:48:01;;;;;;;;;;;15.10;93.70;;;;;;4998916;28;20425;-74
2023/04/29 09:50:28;;;;;;;;;;;15.10;93.70;;;;;;5000588;28;19933;-74
2023/04/29 09:52:55;;;;;;;;;;;15.10;93.70;;;;;;5001913;28;19929;-75
2023/04/29 09:55:21;;;;;;;;;;;15.10;93.80;;;;;;4996685;28;19930;-74
2023/04/29 09:57:49;;;;;;;;;;;15.10;93.70;;;;;;4999753;28;19979;-74
2023/04/29 10:00:16;;;;;;;;;;;15.10;93.70;;;;;;4998461;28;19930;-74
2023/04/29 10:02:45;;;;;;;;;;;15.10;93.80;;;;;;4999353;28;19934;-74
2023/04/29 10:05:12;;;;;;;;;;;15.10;93.70;;;;;;4995726;28;20008;-74
2023/04/29 10:07:39;;;;;;;;;;;15.00;93.70;;;;;;5003641;28;19929;-74
2023/04/29 10:10:07;;;;;;;;;;;15.10;93.70;;;;;;4995319;28;20040;-73
2023/04/29 10:12:35;;;;;;;;;;;15.10;93.70;;;;;;5002416;28;20108;-75
2023/04/29 10:15:05;;;;;;;;;;;15.00;93.60;;;;;;4997974;28;20292;-74
2023/04/29 10:17:36;;;;;;;;;;;15.00;93.60;;;;;;5000822;28;20016;-73
2023/04/29 10:20:05;;;;;;;;;;;15.00;93.60;;;;;;4995364;28;20459;-69
2023/04/29 10:22:35;;;;;;;;;;;15.00;93.60;;;;;;5002941;28;19929;-69
2023/04/29 10:25:03;;;;;;;;;;;15.00;93.60;;;;;;4998908;28;19933;-68
2023/04/29 10:27:31;;;;;;;;;;;15.00;93.60;;;;;;5001489;28;19983;-68
2023/04/29 10:29:58;;;;;;;;;;;15.00;93.40;;;;;;4999609;28;19934;-68
2023/04/29 10:32:28;;;;;;;;;;;15.00;93.30;;;;;;5004577;28;19933;-69
2023/04/29 10:34:55;;;;;;;;;;;15.00;93.30;;;;;;4996832;28;20545;-68
2023/04/29 10:37:22;;;;;;;;;;;15.00;93.30;;;;;;5003502;28;20375;-69
2023/04/29 10:39:50;;;;;;;;;;;15.00;93.20;;;;;;4993587;28;19957;-67
2023/04/29 10:42:21;;;;;;;;;;;15.00;93.20;;;;;;5003761;28;20012;-68
2023/04/29 10:45:07;;;;;;;;;;;15.00;93.20;;;;;;4999470;28;19933;-68
2023/04/29 10:47:34;;;;;;;;;;;15.00;93.10;;;;;;4998456;28;20407;-68
2023/04/29 10:50:03;;;;;;;;;;;15.00;93.00;;;;;;4998030;28;19930;-68
2023/04/29 10:52:29;;;;;;;;;;;15.00;93.00;;;;;;5001939;28;20085;-68
2023/04/29 10:55:01;;;;;;;;;;;15.00;92.90;;;;;;4998106;28;19933;-68
2023/04/29 10:57:28;;;;;;;;;;;15.00;92.90;;;;;;5001164;28;19930;-69
2023/04/29 10:59:55;;;;;;;;;;;15.00;92.80;;;;;;4994988;28;19929;-68
2023/04/29 11:02:22;;;;;;;;;;;15.00;92.80;;;;;;4997184;28;19929;-68
2023/04/29 11:05:09;;;;;;;;;;;15.00;92.70;;;;;;4997559;28;20459;-68
2023/04/29 11:07:36;;;;;;;;;;;15.00;92.60;;;;;;4997135;28;20374;-69
2023/04/29 11:10:03;;;;;;;;;;;15.00;92.50;;;;;;4999044;28;20840;-68
2023/04/29 11:12:29;;;;;;;;;;;15.00;92.40;;;;;;4997235;28;19929;-68
2023/04/29 11:15:01;;;;;;;;;;;15.00;92.30;;;;;;4997824;28;19933;-68
2023/04/29 11:17:35;;;;;;;;;;;15.00;92.30;;;;;;4999819;28;20418;-68
2023/04/29 11:20:01;;;;;;;;;;;14.90;92.30;;;;;;5000582;28;19929;-69
2023/04/29 11:22:31;;;;;;;;;;;15.00;92.30;;;;;;5000458;28;20002;-69
2023/04/29 11:25:00;;;;;;;;;;;15.00;92.30;;;;;;5002971;28;19926;-68
2023/04/29 11:27:29;;;;;;;;;;;15.00;92.30;;;;;;4999091;28;19929;-68
2023/04/29 11:29:58;;;;;;;;;;;15.00;92.30;;;;;;4999688;28;19972;-68
2023/04/29 11:32:25;;;;;;;;;;;15.00;92.20;;;;;;5005619;28;19929;-68
2023/04/29 11:34:52;;;;;;;;;;;15.00;92.20;;;;;;4997380;28;19929;-69
2023/04/29 11:37:19;;;;;;;;;;;15.00;92.10;;;;;;4999627;28;19937;-68
2023/04/29 11:39:47;;;;;;;;;;;15.00;92.10;;;;;;4997920;28;19929;-67
2023/04/29 11:42:18;;;;;;;;;;;15.00;92.00;;;;;;4994191;28;19926;-69
2023/04/29 11:44:45;;;;;;;;;;;15.00;92.00;;;;;;5002217;28;19929;-68
2023/04/29 11:47:12;;;;;;;;;;;15.00;92.00;;;;;;4999590;28;20417;-69
2023/04/29 11:49:39;;;;;;;;;;;15.10;91.80;;;;;;4996459;28;20414;-68
2023/04/29 11:52:05;;;;;;;;;;;15.20;91.80;;;;;;4999468;28;19941;-68
2023/04/29 11:54:32;;;;;;;;;;;15.20;91.70;;;;;;5002331;28;19980;-68
2023/04/29 11:57:01;;;;;;;;;;;15.20;91.60;;;;;;5003137;28;20272;-68
2023/04/29 11:59:28;;;;;;;;;;;15.20;91.60;;;;;;5001906;28;19933;-69
2023/04/29 12:01:55;;;;;;;;;;;15.20;91.60;;;;;;5003874;28;19933;-69
2023/04/29 12:04:22;;;;;;;;;;;15.20;91.40;;;;;;5003191;28;19929;-69
2023/04/29 12:06:51;;;;;;;;;;;15.20;91.30;;;;;;5005031;28;20375;-68
2023/04/29 12:09:18;;;;;;;;;;;15.20;91.10;;;;;;5004811;28;19933;-68
2023/04/29 12:11:45;;;;;;;;;;;15.20;91.10;;;;;;5002857;28;19929;-69
2023/04/29 12:14:14;;;;;;;;;;;15.20;91.00;;;;;;5004044;28;20007;-68
2023/04/29 12:16:40;;;;;;;;;;;15.30;91.00;;;;;;5004234;28;20322;-68
2023/04/29 12:19:09;;;;;;;;;;;15.30;91.00;;;;;;5003450;28;20534;-68
2023/04/29 12:21:35;;;;;;;;;;;15.30;91.00;;;;;;5003651;28;19938;-68
2023/04/29 12:24:02;;;;;;;;;;;15.30;91.00;;;;;;5005349;28;20728;-68
2023/04/29 12:26:30;;;;;;;;;;;15.30;91.00;;;;;;5001279;28;19984;-69
2023/04/29 12:28:57;;;;;;;;;;;15.30;91.00;;;;;;5002335;28;20320;-68
2023/04/29 12:31:31;;;;;;;;;;;15.30;90.90;;;;;;5001545;28;19937;-68
2023/04/29 12:33:58;;;;;;;;;;;15.30;91.00;;;;;;4999246;28;19933;-69
2023/04/29 12:36:24;;;;;;;;;;;15.40;90.90;;;;;;5005506;28;19929;-68
2023/04/29 12:38:53;;;;;;;;;;;15.40;90.70;;;;;;4998615;28;20276;-68
2023/04/29 12:41:20;;;;;;;;;;;15.40;90.60;;;;;;5008071;28;19929;-69
2023/04/29 12:43:50;;;;;;;;;;;15.40;90.60;;;;;;5009830;28;19964;-68
2023/04/29 12:46:16;;;;;;;;;;;15.40;90.40;;;;;;5000833;28;19939;-68
2023/04/29 12:48:44;;;;;;;;;;;15.40;90.50;;;;;;5001052;28;19988;-68
2023/04/29 12:51:11;;;;;;;;;;;15.40;90.40;;;;;;5003600;28;19940;-68
2023/04/29 12:53:37;;;;;;;;;;;15.40;90.20;;;;;;4999022;28;19940;-68
2023/04/29 12:56:04;;;;;;;;;;;15.40;90.10;;;;;;5000644;28;19929;-69
2023/04/29 12:58:33;;;;;;;;;;;15.40;90.10;;;;;;5003793;28;19937;-69
2023/04/29 13:00:59;;;;;;;;;;;15.50;90.10;;;;;;5000777;28;20012;-68
2023/04/29 13:03:26;;;;;;;;;;;15.50;90.10;;;;;;5005675;28;19929;-68
2023/04/29 13:05:54;;;;;;;;;;;15.50;90.00;;;;;;5003017;28;19929;-69
2023/04/29 13:08:21;;;;;;;;;;;15.50;90.00;;;;;;5005839;28;20007;-69
2023/04/29 13:10:48;;;;;;;;;;;15.50;90.00;;;;;;5007704;28;19933;-68
2023/04/29 13:13:15;;;;;;;;;;;15.50;90.00;;;;;;5005410;28;19930;-68
2023/04/29 13:15:41;;;;;;;;;;;15.50;90.00;;;;;;5004932;28;20041;-68
2023/04/29 13:18:08;;;;;;;;;;;15.50;90.00;;;;;;5002040;28;20410;-68
2023/04/29 13:20:35;;;;;;;;;;;15.50;90.00;;;;;;5002572;28;19964;-68
2023/04/29 13:23:02;;;;;;;;;;;15.50;90.10;;;;;;5004751;28;19930;-68
2023/04/29 13:25:29;;;;;;;;;;;15.50;90.00;;;;;;5003232;28;19929;-68
2023/04/29 13:27:55;;;;;;;;;;;15.50;90.00;;;;;;5001568;28;20366;-68
2023/04/29 13:30:22;;;;;;;;;;;15.50;90.10;;;;;;5004249;28;19964;-69
2023/04/29 13:32:49;;;;;;;;;;;15.50;90.10;;;;;;5003367;28;19933;-68
2023/04/29 13:35:15;;;;;;;;;;;15.50;90.30;;;;;;5001803;28;20462;-68
2023/04/29 13:37:42;;;;;;;;;;;15.60;90.30;;;;;;5000295;28;19957;-69
2023/04/29 13:40:10;;;;;;;;;;;15.60;90.30;;;;;;5008728;28;19976;-68
2023/04/29 13:42:37;;;;;;;;;;;15.50;90.20;;;;;;5001144;28;20044;-68
2023/04/29 13:45:04;;;;;;;;;;;15.60;90.10;;;;;;5006875;28;19929;-68
2023/04/29 13:47:30;;;;;;;;;;;15.60;90.10;;;;;;5004637;28;20438;-68
2023/04/29 13:49:57;;;;;;;;;;;15.60;90.10;;;;;;5002740;28;19951;-68
2023/04/29 13:52:23;;;;;;;;;;;15.60;90.00;;;;;;5003766;28;19932;-68
2023/04/29 13:54:50;;;;;;;;;;;15.60;90.10;;;;;;5007773;28;19933;-67
2023/04/29 13:57:18;;;;;;;;;;;15.60;90.10;;;;;;5000432;28;20438;-68
2023/04/29 13:59:45;;;;;;;;;;;15.60;89.90;;;;;;5005084;28;19929;-67
2023/04/29 14:02:12;;;;;;;;;;;15.60;89.90;;;;;;5007380;28;19937;-68
2023/04/29 14:04:39;;;;;;;;;;;15.60;89.80;;;;;;4998407;28;19937;-68
2023/04/29 14:07:06;;;;;;;;;;;15.60;89.60;;;;;;5004959;28;20031;-68
2023/04/29 14:09:32;;;;;;;;;;;15.60;89.40;;;;;;5002471;28;19925;-68
2023/04/29 14:11:59;;;;;;;;;;;15.60;89.40;;;;;;5001171;28;19937;-67
2023/04/29 14:14:26;;;;;;;;;;;15.60;89.30;;;;;;5000289;28;19929;-68
2023/04/29 14:16:53;;;;;;;;;;;15.60;89.10;;;;;;5003733;28;19929;-68